createdAt,value
2022-10-11T00:08:31.285Z,8.8
2022-10-11T00:18:06.631Z,8.7
2022-10-11T00:28:06.690Z,8.6
2022-10-11T00:38:06.629Z,8.6
2022-10-11T00:48:06.632Z,8.5
2022-10-11T00:58:06.638Z,8.5
2022-10-11T01:18:06.631Z,8.4
2022-10-11T01:28:06.678Z,8.3
2022-10-11T01:48:06.652Z,8.1
2022-10-11T02:18:06.645Z,7.6
2022-10-11T02:28:06.706Z,7.5
2022-10-11T02:38:06.657Z,7.4
2022-10-11T02:48:06.657Z,7.3
2022-10-11T02:58:06.653Z,7.1
2022-10-11T03:08:06.656Z,7.0
2022-10-11T03:18:06.658Z,7.0
2022-10-11T03:38:09.135Z,6.7
2022-10-11T03:48:06.668Z,6.7
2022-10-11T03:58:06.679Z,6.5
2022-10-11T04:08:09.833Z,6.4
2022-10-11T04:18:06.695Z,6.2
2022-10-11T04:28:31.407Z,6.1
2022-10-11T04:38:31.345Z,6.0
2022-10-11T04:48:06.681Z,6.0
2022-10-11T04:58:06.696Z,5.9
2022-10-11T05:18:06.682Z,5.7
2022-10-11T05:28:06.692Z,5.6
2022-10-11T05:38:06.810Z,5.5
2022-10-11T05:48:06.701Z,5.5
2022-10-11T05:58:31.407Z,5.5
2022-10-11T06:18:56.038Z,5.5
2022-10-11T06:28:06.841Z,5.6
2022-10-11T06:38:06.712Z,5.8
2022-10-11T06:48:06.705Z,6.2
2022-10-11T06:58:31.384Z,6.8
2022-10-11T07:08:06.712Z,7.0
2022-10-11T07:18:06.722Z,7.2
2022-10-11T07:28:06.722Z,7.5
2022-10-11T07:48:06.733Z,8.5
2022-10-11T07:58:31.427Z,9.0
2022-10-11T08:08:06.744Z,9.5
2022-10-11T08:18:31.319Z,10.0
2022-10-11T08:28:56.119Z,10.5
2022-10-11T08:38:06.724Z,10.9
2022-10-11T08:48:06.667Z,11.4
2022-10-11T08:58:31.349Z,11.9
2022-10-11T09:08:06.683Z,12.5
2022-10-11T09:18:06.675Z,12.9
2022-10-11T09:28:06.686Z,13.3
2022-10-11T09:38:06.690Z,13.7
2022-10-11T09:48:06.694Z,14.0
2022-10-11T09:58:06.696Z,14.4
2022-10-11T10:08:06.716Z,14.7
2022-10-11T10:18:06.721Z,15.0
2022-10-11T10:28:06.710Z,15.4
2022-10-11T10:38:06.733Z,15.6
2022-10-11T10:48:06.723Z,16.0
2022-10-11T10:58:06.735Z,16.2
2022-10-11T11:08:06.736Z,16.6
2022-10-11T11:18:06.745Z,16.7
2022-10-11T11:28:06.755Z,16.8
2022-10-11T11:38:06.789Z,16.9
2022-10-11T11:48:06.753Z,16.8
2022-10-11T11:58:07.293Z,16.9
2022-10-11T12:08:06.759Z,17.3
2022-10-11T12:18:06.767Z,17.6
2022-10-11T12:28:06.773Z,17.8
2022-10-11T12:38:06.777Z,17.9
2022-10-11T12:48:06.782Z,18.0
2022-10-11T12:58:06.781Z,17.8
2022-10-11T13:08:06.790Z,17.9
2022-10-11T13:18:06.801Z,18.1
2022-10-11T13:28:06.803Z,17.9
2022-10-11T13:38:06.805Z,17.6
2022-10-11T13:48:06.806Z,17.3
2022-10-11T13:58:06.808Z,17.0
2022-10-11T14:08:06.806Z,16.6
2022-10-11T14:18:06.802Z,16.4
2022-10-11T14:28:06.815Z,16.7
2022-10-11T14:38:06.817Z,16.9
2022-10-11T14:48:06.836Z,17.1
2022-10-11T14:58:06.843Z,17.2
2022-10-11T15:08:06.838Z,17.5
2022-10-11T15:18:06.839Z,17.7
2022-10-11T15:28:06.837Z,17.7
2022-10-11T15:38:06.841Z,17.7
2022-10-11T15:48:06.847Z,17.7
2022-10-11T15:58:06.854Z,17.4
2022-10-11T16:08:06.858Z,17.1
2022-10-11T16:18:06.869Z,16.7
2022-10-11T16:28:06.867Z,16.5
2022-10-11T16:38:06.861Z,16.2
2022-10-11T16:48:06.861Z,15.8
2022-10-11T16:58:06.867Z,15.3
2022-10-11T17:08:06.863Z,14.7
2022-10-11T17:18:06.875Z,14.2
2022-10-11T17:28:06.870Z,13.8
2022-10-11T17:38:06.874Z,13.3
2022-10-11T17:48:06.867Z,13.0
2022-10-11T17:58:06.873Z,12.6
2022-10-11T18:08:06.881Z,12.3
2022-10-11T18:18:06.877Z,12.0
2022-10-11T18:28:06.877Z,11.8
2022-10-11T18:38:06.875Z,11.6
2022-10-11T18:48:06.884Z,11.3
2022-10-11T18:58:06.879Z,11.1
2022-10-11T19:08:06.878Z,10.8
2022-10-11T19:18:06.893Z,10.6
2022-10-11T19:28:06.887Z,10.4
2022-10-11T19:38:06.895Z,10.2
2022-10-11T19:48:06.898Z,10.0
2022-10-11T20:08:06.913Z,9.7
2022-10-11T20:18:07.005Z,9.5
2022-10-11T20:28:07.009Z,9.3
2022-10-11T20:38:07.008Z,9.2
2022-10-11T20:48:07.007Z,9.0
2022-10-11T20:58:07.006Z,8.9
2022-10-11T21:08:07.015Z,8.7
2022-10-11T21:18:07.016Z,8.6
2022-10-11T21:38:07.041Z,8.3
2022-10-11T21:48:07.038Z,8.2
2022-10-11T21:58:07.029Z,8.0
2022-10-11T22:08:07.026Z,7.9
2022-10-11T22:18:07.027Z,7.8
2022-10-11T22:38:07.036Z,7.5
2022-10-11T22:58:07.027Z,7.4
2022-10-11T23:08:07.042Z,7.3
2022-10-11T23:18:07.040Z,7.2
2022-10-11T23:28:07.047Z,7.1
2022-10-11T23:38:07.044Z,7.0
2022-10-11T23:48:07.044Z,6.9
2022-10-11T23:58:31.718Z,6.8
